Time;durP1;ratioP1;P1;durP2;ratioP2;P2;SDS_P1;SDS_P2;PMS_P1;PMS_P2;Temp;Humidity;BMP_temperature;BMP_pressure;BME280_temperature;BME280_humidity;BME280_pressure;Samples;Min_cycle;Max_cycle;Signal;HPM_P1;HPM_P2
2023/08/27 00:01:25;;;;;;;8.02;3.38;;;15.90;93.60;;;;;;5001212;28;20034;-78
2023/08/27 00:03:51;;;;;;;4.35;3.45;;;15.90;93.00;;;;;;4978636;28;20033;-78
2023/08/27 00:06:16;;;;;;;3.63;3.10;;;15.90;94.20;;;;;;5000673;28;20044;-78
2023/08/27 00:08:42;;;;;;;7.40;4.43;;;15.90;93.10;;;;;;4989660;28;20489;-77
2023/08/27 00:11:08;;;;;;;4.93;3.15;;;15.80;93.60;;;;;;4987764;28;20116;-77
2023/08/27 00:13:33;;;;;;;4.25;3.53;;;15.70;93.50;;;;;;4970825;28;20045;-77
2023/08/27 00:15:59;;;;;;;5.55;3.42;;;15.70;93.50;;;;;;5001616;28;20498;-78
2023/08/27 00:18:25;;;;;;;11.05;6.57;;;15.60;93.40;;;;;;4984783;28;20030;-78
2023/08/27 00:20:50;;;;;;;8.40;6.18;;;15.50;93.90;;;;;;5000128;28;20037;-78
2023/08/27 00:23:16;;;;;;;8.75;6.18;;;15.40;93.50;;;;;;4986314;28;20033;-77
2023/08/27 00:25:44;;;;;;;7.35;5.03;;;15.40;93.60;;;;;;4986988;28;20032;-77
2023/08/27 00:28:13;;;;;;;5.22;3.85;;;15.40;93.60;;;;;;5005274;28;20033;-78
2023/08/27 00:30:39;;;;;;;10.35;6.53;;;15.40;93.60;;;;;;4969770;28;20018;-77
2023/08/27 00:33:04;;;;;;;10.05;6.63;;;15.30;93.20;;;;;;5001430;28;20450;-78
2023/08/27 00:35:30;;;;;;;8.30;6.65;;;15.20;93.40;;;;;;4974522;28;20038;-78
2023/08/27 00:37:56;;;;;;;11.80;6.63;;;15.20;93.90;;;;;;4997632;28;20769;-78
2023/08/27 00:40:21;;;;;;;10.25;6.55;;;15.00;94.20;;;;;;4984322;28;20034;-78
2023/08/27 00:42:47;;;;;;;8.35;5.88;;;15.00;95.40;;;;;;5003693;28;20141;-78
2023/08/27 00:45:12;;;;;;;8.95;6.43;;;15.00;94.70;;;;;;4980948;28;20123;-78
2023/08/27 00:47:38;;;;;;;11.45;5.90;;;15.00;94.00;;;;;;4980616;28;20033;-78
2023/08/27 00:50:04;;;;;;;7.00;5.65;;;15.00;94.00;;;;;;4968950;28;20095;-78
2023/08/27 00:52:30;;;;;;;7.00;5.28;;;14.90;94.30;;;;;;5001139;28;20091;-78
2023/08/27 00:54:55;;;;;;;7.28;5.00;;;14.80;94.40;;;;;;4984849;28;20033;-77
2023/08/27 00:57:21;;;;;;;5.75;4.97;;;14.70;94.60;;;;;;4980377;28;20452;-77
2023/08/27 00:59:47;;;;;;;8.63;4.70;;;14.70;94.60;;;;;;4985745;28;20498;-76
2023/08/27 01:02:15;;;;;;;7.00;4.22;;;14.60;94.80;;;;;;4974917;28;20124;-78
2023/08/27 01:04:40;;;;;;;11.23;4.38;;;14.60;95.10;;;;;;5015810;28;20551;-78
2023/08/27 01:07:26;;;;;;;6.22;4.47;;;14.60;94.80;;;;;;5001032;28;20025;-78
2023/08/27 01:10:17;;;;;;;8.25;4.47;;;14.50;94.60;;;;;;4985719;28;20518;-78
2023/08/27 01:13:03;;;;;;;7.30;4.57;;;14.50;94.60;;;;;;4987320;28;20494;-78
2023/08/27 01:15:29;;;;;;;5.40;4.55;;;14.50;95.00;;;;;;4997406;28;20125;-78
2023/08/27 01:17:55;;;;;;;7.70;4.53;;;14.50;94.80;;;;;;5001426;28;20124;-78
2023/08/27 01:20:21;;;;;;;9.45;4.53;;;14.40;95.00;;;;;;4988678;28;20084;-77
2023/08/27 01:22:46;;;;;;;5.20;4.28;;;14.40;96.10;;;;;;4985602;28;20042;-78
2023/08/27 01:25:12;;;;;;;9.10;4.20;;;14.40;94.90;;;;;;5001716;28;20035;-77
2023/08/27 01:27:42;;;;;;;6.13;3.90;;;14.30;94.90;;;;;;5003766;28;20129;-77
2023/08/27 01:30:15;;;;;;;7.60;4.00;;;14.30;95.10;;;;;;4970816;28;20117;-77
2023/08/27 01:32:50;;;;;;;5.07;3.83;;;14.20;95.10;;;;;;4972315;28;20030;-77
2023/08/27 01:35:16;;;;;;;4.13;2.60;;;14.10;95.60;;;;;;4998530;28;20072;-78
2023/08/27 01:37:41;;;;;;;7.70;2.90;;;14.20;95.20;;;;;;4979569;28;20061;-76
2023/08/27 01:40:08;;;;;;;4.57;3.10;;;14.30;95.30;;;;;;4979908;28;20030;-77
2023/08/27 01:42:35;;;;;;;7.68;3.92;;;14.30;95.00;;;;;;4983569;28;20049;-77
2023/08/27 01:45:01;;;;;;;6.97;4.15;;;14.10;95.00;;;;;;4998885;28;20034;-78
2023/08/27 01:47:27;;;;;;;5.95;4.03;;;14.00;96.30;;;;;;4983552;28;20037;-77
2023/08/27 01:49:53;;;;;;;5.68;3.40;;;13.90;96.20;;;;;;4985268;28;20063;-78
2023/08/27 01:52:18;;;;;;;5.60;3.15;;;13.90;95.70;;;;;;4986017;28;20045;-77
2023/08/27 01:54:45;;;;;;;5.82;4.00;;;14.00;96.00;;;;;;4987828;28;20034;-77
2023/08/27 01:57:11;;;;;;;4.07;3.67;;;14.00;96.00;;;;;;4983967;28;20038;-78
2023/08/27 01:59:39;;;;;;;6.20;3.75;;;13.90;96.40;;;;;;4987849;28;20041;-77
2023/08/27 02:02:05;;;;;;;5.03;3.20;;;13.80;97.20;;;;;;5015047;28;20045;-78
2023/08/27 02:04:30;;;;;;;6.15;3.72;;;13.70;96.10;;;;;;4996072;28;20037;-77
2023/08/27 02:06:56;;;;;;;4.32;3.40;;;13.80;96.50;;;;;;4985146;28;20474;-77
2023/08/27 02:09:23;;;;;;;5.53;3.17;;;13.70;96.20;;;;;;5001381;28;20046;-77
2023/08/27 02:11:49;;;;;;;5.80;2.53;;;13.70;96.40;;;;;;4994603;28;20034;-77
2023/08/27 02:14:15;;;;;;;8.98;3.50;;;13.70;96.30;;;;;;4969995;28;20433;-78
2023/08/27 02:16:40;;;;;;;5.05;2.90;;;13.70;95.90;;;;;;4981175;28;20041;-77
2023/08/27 02:19:06;;;;;;;4.53;3.38;;;13.60;98.90;;;;;;5007263;28;20069;-78
2023/08/27 02:21:34;;;;;;;4.55;3.35;;;13.50;97.60;;;;;;5003529;28;20041;-77
2023/08/27 02:24:00;;;;;;;7.82;3.42;;;13.50;99.00;;;;;;5002761;28;20038;-78
2023/08/27 02:26:25;;;;;;;5.18;3.55;;;13.40;98.10;;;;;;4987771;28;20388;-78
2023/08/27 02:28:51;;;;;;;4.85;3.08;;;13.40;98.40;;;;;;4999175;28;20092;-77
2023/08/27 02:31:16;;;;;;;4.85;3.42;;;13.40;98.90;;;;;;5002794;28;20045;-78
2023/08/27 02:33:43;;;;;;;5.93;3.17;;;13.30;98.40;;;;;;4972882;28;20061;-77
2023/08/27 02:36:09;;;;;;;4.50;3.00;;;13.30;99.20;;;;;;4990716;28;20036;-77
2023/08/27 02:38:35;;;;;;;5.55;3.33;;;13.20;99.10;;;;;;5004801;28;20033;-77
2023/08/27 02:41:00;;;;;;;8.27;3.55;;;13.20;99.90;;;;;;5016212;28;20441;-78
2023/08/27 02:43:26;;;;;;;6.15;3.42;;;13.10;99.10;;;;;;4992046;28;20065;-78
2023/08/27 02:45:51;;;;;;;6.68;3.20;;;13.10;99.40;;;;;;4974820;28;20505;-77
2023/08/27 02:48:17;;;;;;;8.65;3.40;;;13.10;99.70;;;;;;4986872;28;20030;-77
2023/08/27 02:50:42;;;;;;;6.28;3.30;;;13.00;99.20;;;;;;5000706;28;20025;-77
2023/08/27 02:53:08;;;;;;;4.28;2.95;;;13.10;99.90;;;;;;4999223;28;20040;-77
2023/08/27 02:55:34;;;;;;;2.92;2.42;;;13.10;99.90;;;;;;4986853;28;20049;-77
2023/08/27 02:57:59;;;;;;;6.68;3.28;;;13.10;99.80;;;;;;5002480;28;20044;-77
2023/08/27 03:00:25;;;;;;;7.03;3.53;;;13.10;99.90;;;;;;4989310;28;20037;-76
2023/08/27 03:02:51;;;;;;;7.07;3.60;;;13.00;99.90;;;;;;4981917;28;20034;-77
2023/08/27 03:05:17;;;;;;;4.70;2.90;;;13.10;99.90;;;;;;5004501;28;20095;-79
2023/08/27 03:07:42;;;;;;;2.63;2.38;;;13.10;99.90;;;;;;4983502;28;20048;-79
2023/08/27 03:10:09;;;;;;;4.50;2.40;;;13.20;99.90;;;;;;4973993;28;20040;-78
2023/08/27 03:12:34;;;;;;;3.38;2.85;;;13.20;99.90;;;;;;4999180;28;20033;-78
2023/08/27 03:15:00;;;;;;;4.47;2.90;;;13.30;99.90;;;;;;4984799;28;20091;-78
2023/08/27 03:17:26;;;;;;;5.60;2.83;;;13.20;99.90;;;;;;4988143;28;20029;-77
2023/08/27 03:19:51;;;;;;;5.25;3.50;;;13.10;99.90;;;;;;5004447;28;20041;-78
2023/08/27 03:22:17;;;;;;;3.80;2.28;;;13.20;99.90;;;;;;4985360;28;20516;-79
2023/08/27 03:24:43;;;;;;;2.90;2.60;;;13.10;99.90;;;;;;4996659;28;20064;-78
2023/08/27 03:27:08;;;;;;;6.60;2.70;;;13.10;99.90;;;;;;5003536;28;20030;-78
2023/08/27 03:29:34;;;;;;;3.47;2.95;;;13.10;99.90;;;;;;4987955;28;20103;-77
2023/08/27 03:31:59;;;;;;;7.72;3.45;;;13.10;99.90;;;;;;5002777;28;20383;-78
2023/08/27 03:34:25;;;;;;;4.28;2.17;;;12.90;99.90;;;;;;4972599;28;20596;-78
2023/08/27 03:36:50;;;;;;;4.90;2.97;;;13.00;99.90;;;;;;4964406;28;20692;-78
2023/08/27 03:39:16;;;;;;;4.43;2.90;;;13.00;99.90;;;;;;4988436;28;20541;-78
2023/08/27 03:41:41;;;;;;;3.83;2.80;;;13.00;99.90;;;;;;5007620;28;20036;-78
2023/08/27 03:44:07;;;;;;;3.03;2.67;;;13.00;99.90;;;;;;5004506;28;20053;-77
2023/08/27 03:46:33;;;;;;;3.45;2.83;;;12.90;99.90;;;;;;4969679;28;20045;-78
2023/08/27 03:49:00;;;;;;;9.52;2.40;;;13.00;99.90;;;;;;5001459;28;20033;-78
2023/08/27 03:51:28;;;;;;;3.50;2.30;;;13.00;99.90;;;;;;4970741;28;20096;-79
2023/08/27 03:54:00;;;;;;;7.75;2.28;;;13.00;99.90;;;;;;5014636;28;20047;-78
2023/08/27 03:56:25;;;;;;;4.30;2.85;;;12.90;99.90;;;;;;4988931;28;20037;-78
2023/08/27 03:58:51;;;;;;;7.55;3.03;;;13.00;99.90;;;;;;4984991;28;20038;-78
2023/08/27 04:01:17;;;;;;;2.67;2.22;;;13.00;99.90;;;;;;5004885;28;20405;-78
2023/08/27 04:03:42;;;;;;;4.40;2.60;;;13.00;99.90;;;;;;4986566;28;20052;-78
2023/08/27 04:06:08;;;;;;;2.85;2.10;;;13.00;99.90;;;;;;4984454;28;20473;-78
2023/08/27 04:08:34;;;;;;;4.97;2.53;;;13.00;99.90;;;;;;4967651;28;20512;-78
2023/08/27 04:11:00;;;;;;;2.38;2.17;;;13.00;99.90;;;;;;5000802;28;20037;-78
2023/08/27 04:13:26;;;;;;;2.53;2.03;;;12.90;99.90;;;;;;5000951;28;20513;-77
2023/08/27 04:16:05;;;;;;;2.42;2.10;;;12.90;99.90;;;;;;4985277;28;20036;-78
2023/08/27 04:18:32;;;;;;;2.00;1.70;;;13.00;99.90;;;;;;4984185;28;20034;-78
2023/08/27 04:20:58;;;;;;;3.78;2.30;;;13.00;99.90;;;;;;5000325;28;20478;-78
2023/08/27 04:23:23;;;;;;;5.38;2.58;;;13.00;99.90;;;;;;4986542;28;20026;-78
2023/08/27 04:25:49;;;;;;;3.78;2.65;;;13.00;99.90;;;;;;5002618;28;20045;-78
2023/08/27 04:28:15;;;;;;;3.63;2.20;;;13.00;99.90;;;;;;5002111;28;20053;-78
2023/08/27 04:30:40;;;;;;;4.32;2.08;;;12.90;99.90;;;;;;4986809;28;20033;-78
2023/08/27 04:33:06;;;;;;;4.22;2.80;;;12.90;99.90;;;;;;4979697;28;20052;-79
2023/08/27 04:35:32;;;;;;;3.25;2.60;;;12.90;99.90;;;;;;4983486;28;20026;-78
2023/08/27 04:37:57;;;;;;;3.83;2.45;;;13.00;99.90;;;;;;4990694;28;20065;-77
2023/08/27 04:40:23;;;;;;;5.05;2.40;;;12.90;99.90;;;;;;5003707;28;20036;-79
2023/08/27 04:42:48;;;;;;;3.45;1.80;;;13.00;99.90;;;;;;4986683;28;20052;-79
2023/08/27 04:45:14;;;;;;;5.68;2.40;;;13.00;99.90;;;;;;4973010;28;20068;-77
2023/08/27 04:47:41;;;;;;;6.97;2.83;;;13.00;99.90;;;;;;4985371;28;20041;-78
2023/08/27 04:50:07;;;;;;;3.15;2.35;;;13.00;99.90;;;;;;4999566;28;20038;-78
2023/08/27 04:52:36;;;;;;;7.50;2.95;;;13.10;99.90;;;;;;4981202;28;20026;-78
2023/08/27 04:55:05;;;;;;;5.05;2.05;;;13.10;99.90;;;;;;4982514;28;20088;-77
2023/08/27 04:57:31;;;;;;;3.08;2.00;;;13.20;99.90;;;;;;4998781;28;20041;-77
2023/08/27 04:59:57;;;;;;;2.13;1.92;;;13.20;99.90;;;;;;4988423;28;20033;-78
2023/08/27 05:02:22;;;;;;;6.45;2.15;;;13.20;99.90;;;;;;5000046;28;20026;-78
2023/08/27 05:04:48;;;;;;;8.65;1.90;;;13.30;99.90;;;;;;4984400;28;20049;-78
2023/08/27 05:07:14;;;;;;;3.80;1.90;;;13.40;99.90;;;;;;4984934;28;20041;-77
2023/08/27 05:09:39;;;;;;;2.70;1.67;;;13.50;99.90;;;;;;4987579;28;20448;-77
2023/08/27 05:12:05;;;;;;;3.83;2.17;;;13.50;99.90;;;;;;4995996;28;20033;-77
2023/08/27 05:14:30;;;;;;;5.82;2.42;;;13.50;99.90;;;;;;4980711;28;20486;-78
2023/08/27 05:16:56;;;;;;;4.05;2.53;;;13.50;99.90;;;;;;4969205;28;20041;-78
2023/08/27 05:19:21;;;;;;;6.70;2.53;;;13.70;99.90;;;;;;4987225;28;20045;-79
2023/08/27 05:21:47;;;;;;;4.50;2.15;;;13.70;99.90;;;;;;5017964;28;20080;-78
2023/08/27 05:24:13;;;;;;;2.30;2.00;;;13.70;99.90;;;;;;4987428;28;20040;-78
2023/08/27 05:26:38;;;;;;;3.97;1.55;;;13.80;99.90;;;;;;4986434;28;20037;-78
2023/08/27 05:29:04;;;;;;;2.95;1.50;;;14.00;99.90;;;;;;5001648;28;20026;-77
2023/08/27 05:31:30;;;;;;;3.08;1.25;;;14.10;99.90;;;;;;4985507;28;20095;-76
2023/08/27 05:33:56;;;;;;;2.88;1.30;;;14.20;99.90;;;;;;5014600;28;20507;-76
2023/08/27 05:36:21;;;;;;;2.33;1.20;;;14.30;99.90;;;;;;5001365;28;20124;-77
2023/08/27 05:38:48;;;;;;;2.15;1.27;;;14.30;99.90;;;;;;5014801;28;20119;-76
2023/08/27 05:41:13;;;;;;;2.20;1.35;;;14.40;99.90;;;;;;4984672;28;20033;-77
2023/08/27 05:43:40;;;;;;;1.48;1.20;;;14.40;99.90;;;;;;4999904;28;20033;-76
2023/08/27 05:46:06;;;;;;;6.43;1.83;;;14.40;99.90;;;;;;4983262;28;20022;-77
2023/08/27 05:48:32;;;;;;;1.20;1.10;;;14.40;99.90;;;;;;4986697;28;20037;-76
2023/08/27 05:51:00;;;;;;;1.60;1.10;;;14.40;99.90;;;;;;4985832;28;20084;-76
2023/08/27 05:53:25;;;;;;;3.03;1.45;;;14.50;99.90;;;;;;5000668;28;20429;-77
2023/08/27 05:55:51;;;;;;;11.32;2.15;;;14.50;99.90;;;;;;4988766;28;20044;-76
2023/08/27 05:58:16;;;;;;;2.95;1.52;;;14.60;99.90;;;;;;4989396;28;20069;-76
2023/08/27 06:00:42;;;;;;;1.70;1.60;;;14.60;99.90;;;;;;4991025;28;20060;-76
2023/08/27 06:03:08;;;;;;;4.95;1.60;;;14.50;99.90;;;;;;4987059;28;20026;-76
2023/08/27 06:05:33;;;;;;;2.90;1.75;;;14.60;99.90;;;;;;4988428;28;20063;-76
2023/08/27 06:08:02;;;;;;;3.33;1.80;;;14.70;99.90;;;;;;4988957;28;20599;-76
2023/08/27 06:10:28;;;;;;;3.13;1.38;;;14.60;99.90;;;;;;4989030;28;20029;-76
2023/08/27 06:12:54;;;;;;;1.70;1.55;;;14.60;99.90;;;;;;4970092;28;20064;-78
2023/08/27 06:15:20;;;;;;;1.63;1.52;;;14.60;99.90;;;;;;4999786;28;20030;-77
2023/08/27 06:17:45;;;;;;;2.38;1.83;;;14.60;99.90;;;;;;4971462;28;20032;-76
2023/08/27 06:20:11;;;;;;;1.85;1.40;;;14.70;99.90;;;;;;4991681;28;20030;-77
2023/08/27 06:22:37;;;;;;;4.93;2.08;;;14.70;99.90;;;;;;4985967;28;20584;-76
2023/08/27 06:25:03;;;;;;;1.40;1.30;;;14.70;99.90;;;;;;4973849;28;20528;-76
2023/08/27 06:27:29;;;;;;;4.07;1.35;;;14.70;99.90;;;;;;4986500;28;20456;-76
2023/08/27 06:29:54;;;;;;;2.30;1.10;;;14.70;99.90;;;;;;4988612;28;20033;-76
2023/08/27 06:32:20;;;;;;;1.73;1.60;;;14.80;99.90;;;;;;4984143;28;20052;-76
2023/08/27 06:34:45;;;;;;;2.40;1.67;;;14.80;99.90;;;;;;5000286;28;20511;-76
2023/08/27 06:37:11;;;;;;;3.75;1.50;;;14.90;99.90;;;;;;4977748;28;20033;-76
2023/08/27 06:39:36;;;;;;;2.50;1.58;;;14.90;99.90;;;;;;5004950;28;20036;-77
2023/08/27 06:42:03;;;;;;;1.75;1.40;;;14.90;99.90;;;;;;4974692;28;20442;-76
2023/08/27 06:44:29;;;;;;;2.92;1.50;;;15.00;99.90;;;;;;4985196;28;20433;-76
2023/08/27 06:46:55;;;;;;;5.25;1.55;;;15.00;99.90;;;;;;4973222;28;20119;-76
2023/08/27 06:49:20;;;;;;;2.67;1.80;;;15.00;99.90;;;;;;4999201;28;20030;-76
2023/08/27 06:51:46;;;;;;;1.50;1.30;;;15.10;99.90;;;;;;4984105;28;20579;-76
2023/08/27 06:54:15;;;;;;;2.00;1.80;;;15.10;99.90;;;;;;4982919;28;20040;-77
2023/08/27 06:56:40;;;;;;;2.50;1.75;;;15.20;99.90;;;;;;4974167;28;20125;-76
2023/08/27 06:59:10;;;;;;;1.65;1.52;;;15.20;99.90;;;;;;4987055;28;20049;-76
2023/08/27 07:01:35;;;;;;;2.33;1.83;;;15.20;99.90;;;;;;4972698;28;21164;-76
2023/08/27 07:04:02;;;;;;;2.63;1.75;;;15.30;99.90;;;;;;4988606;28;20041;-76
2023/08/27 07:06:27;;;;;;;2.40;1.73;;;15.20;99.90;;;;;;5003363;28;20026;-76
2023/08/27 07:08:53;;;;;;;1.62;1.52;;;15.20;99.90;;;;;;4652412;28;10001409;-77
2023/08/27 07:11:18;;;;;;;2.20;1.35;;;15.20;99.90;;;;;;5000305;28;20065;-76
2023/08/27 07:13:44;;;;;;;3.33;1.52;;;15.30;99.90;;;;;;4968128;28;20545;-76
2023/08/27 07:16:09;;;;;;;3.83;1.77;;;15.40;99.90;;;;;;4985962;28;20050;-77
2023/08/27 07:18:35;;;;;;;2.83;1.80;;;15.50;99.90;;;;;;4973613;28;20493;-76
2023/08/27 07:21:01;;;;;;;4.13;1.50;;;15.50;99.90;;;;;;4991379;28;20034;-78
2023/08/27 07:23:26;;;;;;;2.75;1.63;;;15.60;99.90;;;;;;4969920;28;20454;-77
2023/08/27 07:25:52;;;;;;;4.60;2.47;;;15.60;99.90;;;;;;4970907;28;20029;-77
2023/08/27 07:28:17;;;;;;;3.42;2.25;;;15.70;99.90;;;;;;4968720;28;20414;-77
2023/08/27 07:30:43;;;;;;;2.85;1.80;;;15.80;99.90;;;;;;4970995;28;20026;-76
2023/08/27 07:33:11;;;;;;;3.53;1.88;;;15.90;99.90;;;;;;4982432;28;20037;-77
2023/08/27 07:35:36;;;;;;;6.22;2.10;;;16.00;99.90;;;;;;4986113;28;20084;-77
2023/08/27 07:38:02;;;;;;;4.38;2.30;;;16.10;99.90;;;;;;4982499;28;20037;-77
2023/08/27 07:40:27;;;;;;;2.05;1.55;;;16.10;99.90;;;;;;4955744;28;20545;-77
2023/08/27 07:42:53;;;;;;;3.67;2.58;;;16.20;99.90;;;;;;4983253;28;21318;-78
2023/08/27 07:45:18;;;;;;;4.25;2.03;;;16.20;99.90;;;;;;5000594;28;20103;-77
2023/08/27 07:47:44;;;;;;;2.88;1.90;;;16.20;99.90;;;;;;4989125;28;20029;-77
2023/08/27 07:50:09;;;;;;;2.00;1.83;;;16.20;99.90;;;;;;4983442;28;20033;-77
2023/08/27 07:52:35;;;;;;;1.95;1.83;;;16.30;99.90;;;;;;4968388;28;20887;-78
2023/08/27 07:55:03;;;;;;;3.10;1.73;;;16.40;99.90;;;;;;4982069;28;20037;-78
2023/08/27 07:57:28;;;;;;;3.00;2.30;;;16.50;99.90;;;;;;4967274;28;20037;-78
2023/08/27 07:59:54;;;;;;;4.85;2.63;;;16.60;99.90;;;;;;4984511;28;20554;-78
2023/08/27 08:02:19;;;;;;;3.45;2.30;;;16.80;99.90;;;;;;4985190;28;20033;-79
2023/08/27 08:04:45;;;;;;;5.47;2.38;;;16.90;99.90;;;;;;4986361;28;20042;-77
2023/08/27 08:07:11;;;;;;;4.25;2.00;;;17.10;99.90;;;;;;4969007;28;20044;-78
2023/08/27 08:09:39;;;;;;;4.32;2.15;;;17.20;99.90;;;;;;4981992;28;20033;-79
2023/08/27 08:12:05;;;;;;;2.50;2.30;;;17.30;99.90;;;;;;4998804;28;20557;-79
2023/08/27 08:14:31;;;;;;;3.05;2.22;;;17.40;99.90;;;;;;4984744;28;20124;-78
2023/08/27 08:16:57;;;;;;;3.17;2.25;;;17.50;99.90;;;;;;4981307;28;20038;-78
2023/08/27 08:19:22;;;;;;;4.88;2.67;;;17.50;99.90;;;;;;4968385;28;20371;-78
2023/08/27 08:21:48;;;;;;;4.85;3.22;;;17.70;99.90;;;;;;4984922;28;20267;-79
2023/08/27 08:24:13;;;;;;;3.80;2.92;;;17.90;99.90;;;;;;4969117;28;20062;-78
2023/08/27 08:26:39;;;;;;;7.47;3.67;;;17.90;99.90;;;;;;4985430;28;20037;-80
2023/08/27 08:29:04;;;;;;;5.93;4.20;;;18.00;99.90;;;;;;4969531;28;20037;-79
2023/08/27 08:31:30;;;;;;;4.18;3.47;;;18.10;99.90;;;;;;4985013;28;20486;-79
2023/08/27 08:33:56;;;;;;;4.93;3.30;;;18.30;99.90;;;;;;4980894;28;20080;-79
2023/08/27 08:36:21;;;;;;;4.50;3.17;;;18.30;99.90;;;;;;4981909;28;20111;-79
2023/08/27 08:38:47;;;;;;;4.07;3.08;;;18.40;99.90;;;;;;5003005;28;20032;-79
2023/08/27 08:41:15;;;;;;;6.05;3.30;;;18.50;99.90;;;;;;4985537;28;20285;-80
2023/08/27 08:43:46;;;;;;;3.75;2.63;;;18.60;99.90;;;;;;4985711;28;20044;-79
2023/08/27 08:46:13;;;;;;;4.82;2.53;;;18.70;99.90;;;;;;4970418;28;20068;-79
2023/08/27 08:48:42;;;;;;;6.00;2.72;;;18.80;99.90;;;;;;4982887;28;20065;-77
2023/08/27 08:51:08;;;;;;;2.90;2.15;;;18.90;99.90;;;;;;4971114;28;20034;-78
2023/08/27 08:53:40;;;;;;;2.67;2.47;;;19.10;99.90;;;;;;4981953;28;20036;-78
2023/08/27 08:56:07;;;;;;;2.95;2.28;;;19.20;99.90;;;;;;5002103;28;20034;-78
2023/08/27 08:58:35;;;;;;;1.90;1.80;;;19.40;99.90;;;;;;4973778;28;20045;-77
2023/08/27 09:01:00;;;;;;;2.15;1.70;;;19.60;99.90;;;;;;5000096;28;20037;-77
2023/08/27 09:03:26;;;;;;;3.10;1.90;;;19.70;99.90;;;;;;4985530;28;20037;-77
2023/08/27 09:05:52;;;;;;;3.35;2.03;;;19.70;99.90;;;;;;5003037;28;20117;-78
2023/08/27 09:08:18;;;;;;;1.83;1.60;;;19.70;99.90;;;;;;5004056;28;20524;-77
2023/08/27 09:10:44;;;;;;;1.92;1.48;;;19.60;99.90;;;;;;4982095;28;20482;-77
2023/08/27 09:13:09;;;;;;;3.90;1.60;;;19.70;99.90;;;;;;4979535;28;20026;-78
2023/08/27 09:15:35;;;;;;;2.50;1.38;;;19.70;99.90;;;;;;4998212;28;20032;-78
2023/08/27 09:18:02;;;;;;;2.17;1.50;;;19.90;99.90;;;;;;4977547;28;20037;-77
2023/08/27 09:20:27;;;;;;;2.72;1.65;;;20.10;99.90;;;;;;4983860;28;20076;-78
2023/08/27 09:22:53;;;;;;;2.50;1.65;;;20.10;99.90;;;;;;4985109;28;20025;-78
2023/08/27 09:25:18;;;;;;;1.40;1.30;;;20.20;99.90;;;;;;4981489;28;20127;-77
2023/08/27 09:27:44;;;;;;;6.22;1.80;;;20.20;99.90;;;;;;5003106;28;20791;-78
2023/08/27 09:30:10;;;;;;;3.08;1.77;;;20.40;99.90;;;;;;5000121;28;20036;-78
2023/08/27 09:32:35;;;;;;;3.28;1.88;;;20.60;99.90;;;;;;4983106;28;20246;-78
2023/08/27 09:35:03;;;;;;;3.65;1.88;;;20.60;99.90;;;;;;4967662;28;20033;-77
2023/08/27 09:37:36;;;;;;;4.00;1.88;;;20.60;99.90;;;;;;4971752;28;20042;-78
2023/08/27 09:40:02;;;;;;;2.05;1.60;;;20.70;99.90;;;;;;4987644;28;20033;-78
2023/08/27 09:42:27;;;;;;;2.33;1.70;;;20.80;99.90;;;;;;4985597;28;20124;-77
2023/08/27 09:44:56;;;;;;;2.00;1.70;;;20.90;99.90;;;;;;4983148;28;20121;-76
2023/08/27 09:47:35;;;;;;;1.40;1.30;;;20.80;99.90;;;;;;5002533;28;20038;-77
2023/08/27 09:50:08;;;;;;;3.67;1.42;;;21.10;99.90;;;;;;4970222;28;20034;-77
2023/08/27 09:52:33;;;;;;;2.25;1.77;;;21.30;99.90;;;;;;4976093;28;20041;-77
2023/08/27 09:54:59;;;;;;;4.57;1.90;;;21.40;99.90;;;;;;5001113;28;20409;-78
2023/08/27 09:57:24;;;;;;;2.28;1.70;;;21.60;99.90;;;;;;4969090;28;20064;-77
2023/08/27 09:59:52;;;;;;;3.22;1.65;;;21.70;99.90;;;;;;5004710;28;20501;-77
2023/08/27 10:02:18;;;;;;;2.42;1.77;;;21.80;99.90;;;;;;4981865;28;20129;-77
2023/08/27 10:04:52;;;;;;;3.25;1.38;;;21.80;99.90;;;;;;5002554;28;20164;-77
2023/08/27 10:07:18;;;;;;;2.00;1.73;;;22.00;99.90;;;;;;4980106;28;20037;-77
2023/08/27 10:09:48;;;;;;;1.80;1.63;;;22.00;99.90;;;;;;4963358;28;20509;-77
2023/08/27 10:12:14;;;;;;;3.28;1.80;;;22.00;99.90;;;;;;4986284;28;20125;-78
2023/08/27 10:14:40;;;;;;;3.92;1.55;;;22.00;99.20;;;;;;4984329;28;20127;-78
2023/08/27 10:17:06;;;;;;;4.50;1.83;;;22.20;99.40;;;;;;4972346;28;20103;-78
2023/08/27 10:19:34;;;;;;;2.55;1.58;;;22.20;99.90;;;;;;4987804;28;20458;-76
2023/08/27 10:21:59;;;;;;;2.60;1.70;;;22.20;99.90;;;;;;4971682;28;20103;-77
2023/08/27 10:24:25;;;;;;;2.78;1.42;;;22.10;99.90;;;;;;4984521;28;20120;-77
2023/08/27 10:26:51;;;;;;;3.00;1.55;;;22.10;99.90;;;;;;4987803;28;20374;-77
2023/08/27 10:29:17;;;;;;;2.42;1.52;;;22.10;99.90;;;;;;5001713;28;20030;-77
2023/08/27 10:31:42;;;;;;;2.83;1.60;;;22.00;99.90;;;;;;4984191;28;20095;-78
2023/08/27 10:34:08;;;;;;;3.00;1.55;;;22.00;99.90;;;;;;4995326;28;20034;-78
2023/08/27 10:36:36;;;;;;;1.50;1.35;;;22.00;99.90;;;;;;5004330;28;20045;-78
2023/08/27 10:39:03;;;;;;;2.33;1.40;;;22.00;99.90;;;;;;5005831;28;20029;-78
2023/08/27 10:41:29;;;;;;;1.83;1.50;;;22.10;99.90;;;;;;4983682;28;20034;-78
2023/08/27 10:43:54;;;;;;;3.50;1.17;;;22.20;99.90;;;;;;4988740;28;20037;-78
2023/08/27 10:46:22;;;;;;;1.90;1.33;;;22.30;99.90;;;;;;5003154;28;20175;-78
2023/08/27 10:48:48;;;;;;;1.42;1.10;;;22.40;99.80;;;;;;5001704;28;20029;-78
2023/08/27 10:51:15;;;;;;;2.60;1.73;;;22.50;99.90;;;;;;4997910;28;20561;-78
2023/08/27 10:53:49;;;;;;;3.38;1.52;;;22.60;99.90;;;;;;4989840;28;20478;-78
2023/08/27 10:56:34;;;;;;;2.78;1.42;;;22.60;98.30;;;;;;5000894;28;20114;-78
2023/08/27 10:59:03;;;;;;;2.43;1.10;;;22.90;99.60;;;;;;5002419;28;20033;-78
2023/08/27 11:01:38;;;;;;;1.35;1.17;;;23.00;98.40;;;;;;4977353;28;20536;-78
2023/08/27 11:04:05;;;;;;;1.80;1.10;;;23.20;98.00;;;;;;4993101;28;20513;-78
2023/08/27 11:06:48;;;;;;;4.45;1.35;;;23.40;98.70;;;;;;4988322;28;20639;-78
2023/08/27 11:09:20;;;;;;;1.10;1.00;;;23.60;97.30;;;;;;4989443;28;20033;-78
2023/08/27 11:11:50;;;;;;;1.90;0.90;;;23.70;96.60;;;;;;4988673;28;20061;-78
2023/08/27 11:14:16;;;;;;;2.17;0.93;;;23.80;95.40;;;;;;4988074;28;20486;-78
2023/08/27 11:16:45;;;;;;;1.15;1.02;;;23.90;95.80;;;;;;5000716;28;20033;-78
2023/08/27 11:19:12;;;;;;;3.58;1.25;;;23.90;96.90;;;;;;4988074;28;20059;-78
2023/08/27 11:21:37;;;;;;;2.95;1.17;;;24.20;95.20;;;;;;4989886;28;20041;-77
2023/08/27 11:24:12;;;;;;;2.67;1.17;;;24.40;94.50;;;;;;5019040;28;20053;-78
2023/08/27 11:26:38;;;;;;;1.15;0.80;;;24.50;94.10;;;;;;5003292;28;20112;-78
2023/08/27 11:29:04;;;;;;;2.35;0.90;;;24.70;93.60;;;;;;4999680;28;20045;-78
2023/08/27 11:31:30;;;;;;;1.23;0.75;;;24.50;93.80;;;;;;4973333;28;20045;-78
2023/08/27 11:33:56;;;;;;;2.05;0.77;;;24.50;93.60;;;;;;4984488;28;20026;-78
2023/08/27 11:36:21;;;;;;;1.65;1.00;;;24.50;93.70;;;;;;4984181;28;20040;-78
2023/08/27 11:38:47;;;;;;;1.85;1.35;;;24.40;94.70;;;;;;3966202;28;10000439;-78
2023/08/27 11:41:12;;;;;;;0.82;0.80;;;24.50;93.80;;;;;;4986544;28;20551;-78
2023/08/27 11:43:38;;;;;;;3.08;0.90;;;24.60;93.40;;;;;;4985121;28;20385;-77
2023/08/27 11:46:16;;;;;;;1.90;1.05;;;24.60;92.10;;;;;;4979791;28;20100;-77
2023/08/27 11:48:48;;;;;;;1.73;0.90;;;24.50;94.40;;;;;;4983670;28;20397;-77
2023/08/27 11:51:16;;;;;;;2.40;0.90;;;24.40;95.20;;;;;;4986669;28;20039;-78
2023/08/27 11:53:43;;;;;;;3.28;1.17;;;24.50;93.50;;;;;;5002408;28;20030;-77
2023/08/27 11:56:08;;;;;;;2.28;0.82;;;24.50;95.00;;;;;;4954290;28;20489;-79
2023/08/27 11:58:34;;;;;;;2.15;1.13;;;24.50;93.80;;;;;;4987886;28;20040;-80
2023/08/27 12:01:00;;;;;;;2.95;1.38;;;24.60;93.90;;;;;;4981087;28;20608;-80
2023/08/27 12:03:25;;;;;;;1.65;1.00;;;24.50;94.40;;;;;;4996050;28;20038;-79
2023/08/27 12:05:51;;;;;;;3.08;0.90;;;24.60;93.80;;;;;;4983753;28;20073;-79
2023/08/27 12:08:17;;;;;;;1.67;1.05;;;24.50;92.90;;;;;;4969040;28;20401;-80
2023/08/27 12:10:44;;;;;;;1.63;0.68;;;24.60;94.40;;;;;;4987053;28;20518;-80
2023/08/27 12:13:09;;;;;;;3.17;1.25;;;24.70;92.70;;;;;;4981039;28;20045;-79
2023/08/27 12:15:38;;;;;;;2.75;1.00;;;24.70;93.70;;;;;;4964534;28;20100;-79
2023/08/27 12:18:09;;;;;;;2.30;0.95;;;25.00;91.20;;;;;;4979141;28;20042;-80
2023/08/27 12:20:38;;;;;;;2.15;0.70;;;25.00;90.80;;;;;;4974823;28;20109;-80
2023/08/27 12:23:10;;;;;;;1.88;1.10;;;25.00;91.20;;;;;;4998258;28;20061;-80
2023/08/27 12:25:53;;;;;;;1.15;0.93;;;25.20;90.20;;;;;;4969027;28;20045;-81
2023/08/27 12:28:20;;;;;;;1.30;0.68;;;25.20;88.40;;;;;;4988101;28;20733;-82
2023/08/27 12:30:49;;;;;;;1.67;0.80;;;25.30;86.70;;;;;;4977987;28;20062;-81
2023/08/27 12:33:15;;;;;;;3.35;0.80;;;25.50;86.60;;;;;;4986414;28;20038;-81
2023/08/27 12:35:47;;;;;;;2.30;1.00;;;25.50;85.40;;;;;;4971106;28;20047;-81
2023/08/27 12:38:13;;;;;;;0.45;0.45;;;25.80;85.20;;;;;;4983963;28;20034;-80
2023/08/27 12:40:39;;;;;;;1.58;0.60;;;25.80;81.80;;;;;;4986257;28;20041;-81
2023/08/27 12:43:05;;;;;;;2.78;0.90;;;25.80;81.50;;;;;;4980591;28;20044;-81